Terminal Aerodrome Forecast
Issued by NWS

Home | Current Version | Previous Version | Text Only | Print | Product List | Glossary On
Versions: 1 2 3 4 5 6 7 8 9 10 11 12 13 14 15 16 17 18 19 20 21 22 23 24
000
FTUS44 KLIX 230527
TAFGPT
TAF
KGPT 230527Z 2306/2406 14011G21KT 3SM -SHRA BR OVC014
      TEMPO 2310/2314 1/2SM FG OVC013
     FM231500 16012KT 5SM -SHRA BR OVC018
     FM232000 23016G24KT 2SM +SHRA OVC020
     FM240300 32016KT P6SM BKN040=

USA.gov is the U.S. government's official web portal to all federal, state and local government web resources and services.